Time;durP1;ratioP1;P1;durP2;ratioP2;P2;SDS_P1;SDS_P2;PMS_P1;PMS_P2;Temp;Humidity;BMP_temperature;BMP_pressure;BME280_temperature;BME280_humidity;BME280_pressure;Samples;Min_cycle;Max_cycle;Signal;HPM_P1;HPM_P2
2022/10/04 00:01:58;;;;;;;3.83;1.90;;;;;;;12.79;100.00;101298.97;5007761;28;20077;-49
2022/10/04 00:04:40;;;;;;;3.47;2.20;;;;;;;12.80;100.00;101295.28;5006191;28;20459;-49
2022/10/04 00:07:13;;;;;;;6.18;2.30;;;;;;;12.81;100.00;101297.78;5004985;28;20033;-48
2022/10/04 00:09:48;;;;;;;4.65;3.03;;;;;;;12.83;100.00;101290.44;5010616;28;20030;-51
2022/10/04 00:12:20;;;;;;;7.07;2.38;;;;;;;12.83;100.00;101293.09;5008891;28;20041;-50
2022/10/04 00:14:46;;;;;;;3.58;2.75;;;;;;;12.84;100.00;101292.09;5007084;28;20072;-49
2022/10/04 00:17:13;;;;;;;5.68;3.10;;;;;;;12.83;100.00;101290.44;5007793;28;20119;-51
2022/10/04 00:19:44;;;;;;;6.88;3.20;;;;;;;12.82;100.00;101294.09;5004538;28;20041;-49
2022/10/04 00:22:29;;;;;;;4.45;2.30;;;;;;;12.83;100.00;101277.13;5009669;28;20030;-51
2022/10/04 00:28:14;;;;;;;5.97;2.72;;;;;;;12.81;100.00;101268.50;5057659;28;20142;-53
2022/10/04 00:30:40;;;;;;;5.03;3.33;;;;;;;12.82;100.00;101267.47;5055793;28;20044;-48
2022/10/04 00:33:05;;;;;;;6.10;3.53;;;;;;;12.81;100.00;101271.16;5052562;28;20033;-50
2022/10/04 00:35:47;;;;;;;7.20;4.65;;;;;;;12.82;100.00;101259.50;5051982;28;20037;-50
2022/10/04 00:38:15;;;;;;;5.68;3.50;;;;;;;12.80;100.00;101264.22;5054772;28;20554;-50
2022/10/04 00:41:04;;;;;;;4.45;2.78;;;;;;;12.82;100.00;101253.34;5060485;28;20368;-51
2022/10/04 00:43:39;;;;;;;6.90;2.22;;;;;;;12.83;100.00;101253.19;5060320;28;20036;-53
2022/10/04 00:46:11;;;;;;;5.68;3.30;;;;;;;12.84;100.00;101257.47;5057626;28;20052;-52
2022/10/04 00:48:39;;;;;;;6.35;3.75;;;;;;;12.86;100.00;101266.09;5047889;28;20075;-51
2022/10/04 00:51:11;;;;;;;2.53;2.33;;;;;;;12.85;100.00;101263.63;5055097;28;20025;-49
2022/10/04 00:53:40;;;;;;;6.63;3.10;;;;;;;12.86;100.00;101259.97;5058204;28;20128;-51
2022/10/04 00:56:12;;;;;;;7.40;2.90;;;;;;;12.86;100.00;101246.66;5057392;28;20021;-48
2022/10/04 00:59:02;;;;;;;5.55;2.88;;;;;;;12.90;100.00;101241.78;5055248;28;20078;-49
2022/10/04 01:01:32;;;;;;;6.20;3.13;;;;;;;12.90;100.00;101241.78;5051882;28;20083;-50
2022/10/04 01:04:01;;;;;;;9.18;3.35;;;;;;;12.91;100.00;101238.09;5051981;28;20016;-49
2022/10/04 01:06:27;;;;;;;7.10;3.97;;;;;;;12.93;100.00;101233.41;5054015;28;20111;-51
2022/10/04 01:09:00;;;;;;;7.30;3.92;;;;;;;12.93;100.00;101236.88;5051494;28;20028;-51
2022/10/04 01:11:43;;;;;;;6.22;3.60;;;;;;;12.97;100.00;101226.72;5055362;28;20039;-51
2022/10/04 01:14:25;;;;;;;10.52;4.13;;;;;;;12.97;100.00;101222.22;5054165;28;20147;-50
2022/10/04 01:16:51;;;;;;;8.02;3.78;;;;;;;12.95;100.00;101207.44;5053210;28;20416;-56
2022/10/04 01:19:34;;;;;;;6.40;2.90;;;;;;;13.01;100.00;101196.88;5052807;28;20021;-56
2022/10/04 01:22:28;;;;;;;9.40;4.03;;;;;;;13.04;100.00;101206.31;5054975;28;20041;-54
2022/10/04 01:24:54;;;;;;;3.95;3.65;;;;;;;13.06;100.00;101204.25;5055028;28;20041;-54
2022/10/04 01:27:34;;;;;;;4.20;2.50;;;;;;;13.10;100.00;101210.88;5061923;28;20068;-53
2022/10/04 01:30:01;;;;;;;4.93;3.03;;;;;;;13.12;100.00;101208.03;5047869;28;20074;-52
2022/10/04 01:32:28;;;;;;;7.35;3.30;;;;;;;13.11;100.00;101204.53;5053437;28;20024;-50
2022/10/04 01:34:54;;;;;;;7.60;4.28;;;;;;;13.12;100.00;101214.19;5060936;28;20457;-52
2022/10/04 01:37:20;;;;;;;4.82;3.55;;;;;;;13.13;100.00;101210.50;5049940;28;20056;-51
2022/10/04 01:39:46;;;;;;;8.75;3.42;;;;;;;13.13;100.00;101207.81;5038021;28;20236;-56
2022/10/04 01:42:18;;;;;;;5.70;3.03;;;;;;;13.14;100.00;101212.16;5050685;28;20025;-49
2022/10/04 01:44:49;;;;;;;3.92;2.53;;;;;;;13.16;100.00;101202.13;5040174;28;20036;-51
2022/10/04 01:47:23;;;;;;;6.43;3.20;;;;;;;13.17;100.00;101201.13;5041540;28;20078;-50
2022/10/04 01:49:51;;;;;;;5.28;2.15;;;;;;;13.17;100.00;101195.78;5036524;28;20032;-49
2022/10/04 01:52:22;;;;;;;4.22;2.55;;;;;;;13.17;100.00;101179.81;5035689;28;20044;-50
2022/10/04 01:54:58;;;;;;;6.82;2.70;;;;;;;13.19;100.00;101166.28;5037379;28;20115;-50
2022/10/04 01:57:30;;;;;;;4.35;2.75;;;;;;;13.20;100.00;101165.28;5044452;28;20028;-53
2022/10/04 02:00:03;;;;;;;4.43;3.05;;;;;;;13.22;100.00;101160.59;5041368;28;20040;-52
2022/10/04 02:02:33;;;;;;;9.13;2.47;;;;;;;13.22;100.00;101153.44;5038839;28;20025;-52
2022/10/04 02:05:00;;;;;;;7.07;2.40;;;;;;;13.25;100.00;101152.22;5041949;28;20021;-49
2022/10/04 02:07:30;;;;;;;6.32;2.88;;;;;;;13.24;100.00;101156.75;5044806;28;20037;-51
2022/10/04 02:10:01;;;;;;;4.65;2.60;;;;;;;13.30;100.00;101147.19;5035696;28;20025;-51
2022/10/04 02:12:30;;;;;;;4.85;2.58;;;;;;;13.26;100.00;101149.38;5016845;28;20047;-54
2022/10/04 02:14:57;;;;;;;3.78;2.55;;;;;;;13.27;100.00;101143.06;5022608;28;20425;-51
2022/10/04 02:17:27;;;;;;;4.65;1.90;;;;;;;13.28;100.00;101139.38;5037961;28;20497;-51
2022/10/04 02:19:53;;;;;;;5.15;2.38;;;;;;;13.26;100.00;101145.88;5033758;28;20530;-51
2022/10/04 02:22:21;;;;;;;3.42;2.03;;;;;;;13.29;100.00;101141.03;5041835;28;20021;-52
2022/10/04 02:24:48;;;;;;;2.72;2.33;;;;;;;13.25;100.00;101139.72;5045526;28;22258;-55
2022/10/04 02:27:15;;;;;;;3.67;1.98;;;;;;;13.21;100.00;101140.31;5040890;28;20431;-53
2022/10/04 02:29:40;;;;;;;4.82;2.42;;;;;;;13.20;100.00;101136.81;5038538;28;20032;-50
2022/10/04 02:34:54;;;;;;;5.53;3.03;;;;;;;13.19;100.00;101135.19;5038372;28;20124;-49
2022/10/04 02:37:26;;;;;;;3.03;2.75;;;;;;;13.17;100.00;101131.88;5046307;28;20056;-50
2022/10/04 02:40:12;;;;;;;5.38;2.28;;;;;;;13.07;100.00;101120.75;5035518;28;20041;-49
2022/10/04 02:42:50;;;;;;;2.58;1.92;;;;;;;12.95;100.00;101122.25;5039928;28;20512;-49
2022/10/04 02:45:30;;;;;;;4.10;2.90;;;;;;;12.84;100.00;101115.63;5038171;28;20072;-50
2022/10/04 02:48:40;;;;;;;2.95;2.05;;;;;;;12.83;100.00;101113.94;5042310;28;20124;-49
2022/10/04 02:51:22;;;;;;;5.28;1.67;;;;;;;12.88;100.00;101111.53;4980194;28;20038;-51
2022/10/04 02:54:08;;;;;;;4.85;2.45;;;;;;;12.98;100.00;101111.22;5036010;28;20044;-49
2022/10/04 02:56:36;;;;;;;3.42;2.22;;;;;;;13.04;100.00;101102.50;5038605;28;20039;-50
2022/10/04 02:59:04;;;;;;;4.35;2.47;;;;;;;13.08;100.00;101098.41;5038863;28;20025;-49
2022/10/04 03:01:48;;;;;;;7.57;3.05;;;;;;;13.13;100.00;101090.69;5029615;28;20036;-49
2022/10/04 03:04:14;;;;;;;2.30;1.95;;;;;;;13.18;100.00;101082.94;5034368;28;20112;-52
2022/10/04 03:06:42;;;;;;;3.80;2.38;;;;;;;13.19;100.00;101083.75;5037446;28;20123;-50
2022/10/04 03:09:07;;;;;;;3.08;1.77;;;;;;;13.19;100.00;101086.41;5041459;28;20025;-52
2022/10/04 03:11:36;;;;;;;3.60;2.30;;;;;;;13.18;100.00;101084.78;5047326;28;20470;-47
2022/10/04 03:14:06;;;;;;;5.20;2.65;;;;;;;13.21;100.00;101095.03;5038715;28;20035;-52
2022/10/04 03:16:39;;;;;;;3.15;1.70;;;;;;;13.20;100.00;101085.41;5047146;28;20033;-53
2022/10/04 03:19:07;;;;;;;4.70;2.13;;;;;;;13.22;100.00;101086.06;5035191;28;20120;-49
2022/10/04 03:21:34;;;;;;;2.40;1.90;;;;;;;13.22;100.00;101080.72;5038356;28;20445;-49
2022/10/04 03:24:02;;;;;;;2.92;2.38;;;;;;;13.22;100.00;101081.53;5036064;28;20032;-52
2022/10/04 03:26:46;;;;;;;4.75;2.28;;;;;;;13.24;100.00;101074.19;5036410;28;20453;-47
2022/10/04 03:29:14;;;;;;;6.35;2.25;;;;;;;13.21;100.00;101085.19;5035048;28;20407;-49
2022/10/04 03:31:45;;;;;;;5.75;2.78;;;;;;;13.22;100.00;101094.03;5037986;28;20722;-47
2022/10/04 03:34:21;;;;;;;8.43;3.72;;;;;;;13.21;100.00;101085.19;5033320;28;20036;-49
2022/10/04 03:36:49;;;;;;;4.05;2.15;;;;;;;13.19;100.00;101079.28;5040206;28;20029;-47
2022/10/04 03:39:30;;;;;;;4.10;1.80;;;;;;;13.19;100.00;101078.41;5038116;28;20558;-47
2022/10/04 03:41:57;;;;;;;4.72;2.42;;;;;;;13.21;100.00;101063.91;5042221;28;20578;-50
2022/10/04 03:44:23;;;;;;;2.70;1.38;;;;;;;13.20;100.00;101062.25;5031685;28;20387;-46
2022/10/04 03:46:49;;;;;;;3.97;2.58;;;;;;;13.23;100.00;101050.41;5042054;28;20490;-49
2022/10/04 03:49:29;;;;;;;3.58;1.42;;;;;;;13.26;100.00;101044.69;5034690;28;20033;-53
2022/10/04 03:51:55;;;;;;;3.80;1.42;;;;;;;13.24;100.00;101039.56;5038000;28;20087;-51
2022/10/04 03:54:26;;;;;;;5.85;1.98;;;;;;;13.18;100.00;101042.19;5040562;28;20031;-56
2022/10/04 03:56:53;;;;;;;2.63;1.50;;;;;;;13.12;100.00;101048.28;5030808;28;20045;-51
2022/10/04 03:59:20;;;;;;;2.92;1.55;;;;;;;13.09;100.00;101060.97;5036768;28;20051;-52
2022/10/04 04:02:01;;;;;;;3.85;1.13;;;;;;;13.07;100.00;101056.84;5034276;28;20021;-51
2022/10/04 04:04:49;;;;;;;1.55;1.45;;;;;;;13.03;100.00;101055.56;5037846;28;20100;-47
2022/10/04 04:07:31;;;;;;;4.15;1.33;;;;;;;13.02;100.00;101051.28;5043584;28;20502;-53
2022/10/04 04:10:15;;;;;;;1.50;1.40;;;;;;;12.93;100.00;101052.41;5034461;28;20471;-51
2022/10/04 04:12:52;;;;;;;6.05;1.63;;;;;;;12.83;100.00;101047.41;5040996;28;20344;-52
2022/10/04 04:15:17;;;;;;;3.42;1.15;;;;;;;12.73;100.00;101047.78;5040482;28;20032;-52
2022/10/04 04:17:50;;;;;;;1.10;0.95;;;;;;;12.78;100.00;101058.66;5032469;28;21659;-48
2022/10/04 04:20:27;;;;;;;1.58;1.48;;;;;;;12.83;100.00;101060.72;5038795;28;20029;-51
2022/10/04 04:23:01;;;;;;;4.00;1.40;;;;;;;12.77;100.00;101062.31;5037460;28;20021;-49
2022/10/04 04:25:30;;;;;;;3.17;0.90;;;;;;;12.75;100.00;101056.38;5033086;28;20060;-51
2022/10/04 04:28:21;;;;;;;2.42;1.33;;;;;;;12.82;100.00;101057.25;5035285;28;20033;-49
2022/10/04 04:30:50;;;;;;;1.30;1.10;;;;;;;12.88;100.00;101048.50;5035585;28;20048;-52
2022/10/04 04:33:48;;;;;;;1.17;1.13;;;;;;;12.92;100.00;101051.59;5039268;28;20033;-52
2022/10/04 04:36:15;;;;;;;3.05;1.17;;;;;;;12.94;100.00;101051.44;5038283;28;20041;-47
2022/10/04 04:41:28;;;;;;;2.85;0.68;;;;;;;13.01;100.00;101044.28;5044545;28;20516;-49
2022/10/04 04:43:53;;;;;;;1.95;0.50;;;;;;;13.05;100.00;101050.88;5030689;28;20044;-52
2022/10/04 04:46:20;;;;;;;3.83;0.73;;;;;;;13.07;100.00;101062.16;5032803;28;20033;-50
2022/10/04 04:48:48;;;;;;;3.17;0.30;;;;;;;13.08;100.00;101055.81;5035213;28;20257;-48
2022/10/04 04:51:20;;;;;;;1.80;0.17;;;;;;;13.09;100.00;101060.97;5039178;28;20040;-50
2022/10/04 04:53:47;;;;;;;3.22;0.10;;;;;;;13.14;100.00;101049.75;5042816;28;20494;-49
2022/10/04 04:56:18;;;;;;;1.65;0.13;;;;;;;13.15;100.00;101045.22;5044647;28;20424;-51
2022/10/04 04:58:46;;;;;;;0.35;0.20;;;;;;;13.16;100.00;101036.22;5040999;28;20116;-48
2022/10/04 05:01:22;;;;;;;3.65;0.85;;;;;;;13.16;100.00;101037.03;5040710;28;20064;-50
2022/10/04 05:03:59;;;;;;;1.27;0.40;;;;;;;13.17;100.00;101025.38;5034285;28;20029;-51
2022/10/04 05:06:26;;;;;;;1.00;0.20;;;;;;;13.16;100.00;101018.41;5033941;28;20037;-47
2022/10/04 05:08:52;;;;;;;0.20;0.00;;;;;;;13.18;100.00;101015.53;5026805;28;20563;-52
2022/10/04 05:11:20;;;;;;;0.55;0.10;;;;;;;13.16;100.00;101010.41;5035524;28;20033;-51
2022/10/04 05:14:11;;;;;;;1.48;0.10;;;;;;;13.18;100.00;101010.22;5041278;28;20052;-52
2022/10/04 05:16:54;;;;;;;0.45;0.20;;;;;;;13.16;100.00;101005.09;5041061;28;20033;-53
2022/10/04 05:19:30;;;;;;;0.73;0.20;;;;;;;13.16;100.00;101004.25;5039130;28;20044;-51
2022/10/04 05:22:01;;;;;;;0.47;0.10;;;;;;;13.15;100.00;101011.44;5046403;28;20033;-53
2022/10/04 05:24:31;;;;;;;0.05;0.00;;;;;;;13.15;100.00;101006.09;5046529;28;20474;-52
2022/10/04 05:27:00;;;;;;;0.25;0.00;;;;;;;13.15;100.00;100998.13;5039035;28;20053;-54
2022/10/04 05:29:31;;;;;;;3.10;0.05;;;;;;;13.18;100.00;101000.38;5041396;28;20029;-50
2022/10/04 05:32:20;;;;;;;3.72;1.08;;;;;;;13.19;100.00;101002.06;5043356;28;20516;-51
2022/10/04 05:34:48;;;;;;;0.28;0.10;;;;;;;13.19;100.00;100993.22;5035411;28;20044;-48
2022/10/04 05:37:44;;;;;;;1.60;0.13;;;;;;;13.17;100.00;100987.28;5051301;28;20108;-49
2022/10/04 05:40:12;;;;;;;0.32;0.00;;;;;;;13.21;100.00;100994.66;5032428;28;20409;-47
2022/10/04 05:42:44;;;;;;;3.30;0.10;;;;;;;13.23;100.00;100989.16;5025541;28;20400;-51
2022/10/04 05:45:15;;;;;;;1.08;0.08;;;;;;;13.25;100.00;100987.94;5032746;28;20040;-52
2022/10/04 05:47:41;;;;;;;0.90;0.00;;;;;;;13.20;100.00;100993.03;5032725;28;20497;-49
2022/10/04 05:50:15;;;;;;;0.00;0.00;;;;;;;13.22;100.00;101000.84;5029413;28;20512;-51
2022/10/04 05:52:42;;;;;;;2.05;0.00;;;;;;;13.20;100.00;100992.22;5029844;28;20046;-49
2022/10/04 05:55:27;;;;;;;0.47;0.03;;;;;;;13.21;100.00;100996.50;5028092;28;20427;-51
2022/10/04 05:58:02;;;;;;;1.27;0.00;;;;;;;13.17;100.00;100996.09;5030888;28;20032;-52
2022/10/04 06:01:04;;;;;;;3.13;0.00;;;;;;;13.18;100.00;100994.25;5030377;28;20545;-51
2022/10/04 06:03:56;;;;;;;2.83;0.10;;;;;;;13.19;100.00;100996.72;5031068;28;20048;-49
2022/10/04 06:06:43;;;;;;;0.22;0.08;;;;;;;13.20;100.00;101003.69;5026891;28;20021;-51
2022/10/04 06:09:20;;;;;;;1.25;0.38;;;;;;;13.17;100.00;100990.78;5022049;28;20078;-52
2022/10/04 06:12:26;;;;;;;0.00;0.00;;;;;;;13.20;100.00;100987.72;5026507;28;20033;-49
2022/10/04 06:15:01;;;;;;;0.65;0.00;;;;;;;13.14;100.00;100988.50;5026426;28;20123;-50
2022/10/04 06:18:05;;;;;;;0.10;0.00;;;;;;;13.14;100.00;100987.66;5030106;28;20025;-50
2022/10/04 06:20:49;;;;;;;0.73;0.00;;;;;;;13.17;100.00;100989.94;5030964;28;20052;-50
2022/10/04 06:23:17;;;;;;;0.25;0.00;;;;;;;13.15;100.00;100994.66;5033194;28;20044;-50
2022/10/04 06:26:01;;;;;;;1.23;0.32;;;;;;;13.12;100.00;100998.53;5032239;28;20686;-49
2022/10/04 06:28:38;;;;;;;0.17;0.00;;;;;;;13.13;100.00;100999.34;5023775;28;20022;-50
2022/10/04 06:31:21;;;;;;;1.98;0.00;;;;;;;13.16;100.00;101007.75;5038078;28;20025;-47
2022/10/04 06:34:01;;;;;;;0.08;0.00;;;;;;;13.16;100.00;101013.06;5037208;28;20083;-49
2022/10/04 06:37:02;;;;;;;0.00;0.00;;;;;;;13.22;100.00;101006.16;5030794;28;20514;-49
2022/10/04 06:39:36;;;;;;;0.52;0.45;;;;;;;13.20;100.00;101003.69;5029412;28;20033;-49
2022/10/04 06:42:39;;;;;;;1.58;0.38;;;;;;;13.22;100.00;101006.97;5039568;28;20029;-50
2022/10/04 06:45:27;;;;;;;1.88;0.00;;;;;;;13.20;100.00;100998.34;5026214;28;20033;-52
2022/10/04 06:47:59;;;;;;;0.08;0.08;;;;;;;13.23;100.00;101000.63;5033015;28;20036;-49
2022/10/04 06:50:43;;;;;;;1.65;0.00;;;;;;;13.22;100.00;100993.66;5041362;28;20457;-49
2022/10/04 06:53:24;;;;;;;0.10;0.00;;;;;;;13.21;100.00;101000.00;5032736;28;20052;-54
2022/10/04 06:56:13;;;;;;;0.10;0.00;;;;;;;13.25;100.00;100992.44;5032037;28;20036;-50
2022/10/04 06:59:26;;;;;;;1.10;0.10;;;;;;;13.25;100.00;100993.28;5036814;28;20021;-51
2022/10/04 07:02:02;;;;;;;2.30;0.10;;;;;;;13.25;100.00;100984.47;5022501;28;20033;-51
2022/10/04 07:04:40;;;;;;;0.20;0.00;;;;;;;13.26;100.00;100980.78;5028909;28;20079;-50
2022/10/04 07:07:26;;;;;;;0.10;0.00;;;;;;;13.26;100.00;100984.28;5036369;28;20025;-55
2022/10/04 07:09:59;;;;;;;0.00;0.00;;;;;;;13.28;100.00;100987.56;5032377;28;20037;-55
2022/10/04 07:12:26;;;;;;;1.30;0.00;;;;;;;13.34;100.00;100985.16;5028176;28;20029;-53
2022/10/04 07:14:59;;;;;;;0.60;0.10;;;;;;;13.38;100.00;100991.75;5035861;28;20033;-50
2022/10/04 07:17:35;;;;;;;0.00;0.00;;;;;;;13.44;100.00;100998.94;5034837;28;20033;-50
2022/10/04 07:20:01;;;;;;;1.67;0.00;;;;;;;13.45;100.00;101000.56;5041904;28;20037;-51
2022/10/04 07:22:40;;;;;;;0.13;0.13;;;;;;;13.48;100.00;101003.69;5040786;28;20025;-51
2022/10/04 07:25:35;;;;;;;0.10;0.10;;;;;;;13.46;100.00;101013.69;5034716;28;20021;-50
2022/10/04 07:31:02;;;;;;;3.35;0.55;;;;;;;13.45;100.00;101001.41;5040277;28;20040;-54
2022/10/04 07:33:31;;;;;;;1.65;0.20;;;;;;;13.46;100.00;101004.88;5036494;28;20037;-52
2022/10/04 07:36:11;;;;;;;0.00;0.00;;;;;;;13.46;100.00;101018.22;5028342;28;20422;-54
2022/10/04 07:38:46;;;;;;;0.70;0.00;;;;;;;13.43;100.00;101029.25;5036889;28;20471;-53
2022/10/04 07:41:22;;;;;;;2.17;0.22;;;;;;;13.40;100.00;101035.81;5030350;28;20024;-48
2022/10/04 07:43:53;;;;;;;3.50;0.00;;;;;;;13.37;100.00;101032.69;5027957;28;20067;-55
2022/10/04 07:46:36;;;;;;;0.55;0.17;;;;;;;13.33;100.00;101023.47;5032699;28;20040;-55
2022/10/04 07:49:02;;;;;;;2.55;0.00;;;;;;;13.29;100.00;101031.00;5026597;28;20036;-50
2022/10/04 07:51:43;;;;;;;0.22;0.00;;;;;;;13.28;100.00;101032.84;5034601;28;20037;-47
2022/10/04 07:54:26;;;;;;;0.65;0.30;;;;;;;13.28;100.00;101021.38;5034968;28;20074;-48
2022/10/04 07:56:58;;;;;;;0.82;0.00;;;;;;;13.28;100.00;101027.53;5035369;28;20124;-50
2022/10/04 07:59:44;;;;;;;3.20;0.20;;;;;;;13.28;100.00;101016.88;5038024;28;20076;-49
2022/10/04 08:02:42;;;;;;;0.68;0.00;;;;;;;13.31;100.00;101015.66;5036860;28;20032;-50
2022/10/04 08:05:28;;;;;;;0.10;0.00;;;;;;;13.32;100.00;101017.31;5042188;28;20036;-48
2022/10/04 08:08:18;;;;;;;0.08;0.00;;;;;;;13.34;100.00;101011.78;5037214;28;20032;-52
2022/10/04 08:10:55;;;;;;;0.63;0.00;;;;;;;13.31;100.00;101008.47;5039387;28;20040;-48
2022/10/04 08:13:50;;;;;;;0.10;0.10;;;;;;;13.35;100.00;101013.44;5033672;28;20026;-51
2022/10/04 08:16:34;;;;;;;1.85;0.10;;;;;;;13.34;100.00;101006.44;5033418;28;20083;-52
2022/10/04 08:19:15;;;;;;;0.90;0.00;;;;;;;13.33;100.00;101012.81;5036173;28;20032;-53
2022/10/04 08:22:03;;;;;;;0.20;0.10;;;;;;;13.44;100.00;101009.59;5043030;28;20048;-49
2022/10/04 08:24:41;;;;;;;0.15;0.13;;;;;;;13.46;100.00;101004.88;5034359;28;20033;-49
2022/10/04 08:27:29;;;;;;;0.32;0.00;;;;;;;13.54;100.00;101002.06;5041751;28;20050;-54
2022/10/04 08:30:09;;;;;;;1.30;0.00;;;;;;;13.61;100.00;100997.59;5039372;28;20021;-50
2022/10/04 08:33:05;;;;;;;0.05;0.00;;;;;;;13.69;100.00;100992.09;5035897;28;20037;-50
2022/10/04 08:35:35;;;;;;;0.30;0.00;;;;;;;13.72;100.00;100981.03;5034748;28;20057;-55
2022/10/04 08:38:16;;;;;;;1.75;0.20;;;;;;;13.83;100.00;100995.59;5047200;28;20037;-51
2022/10/04 08:41:06;;;;;;;2.08;0.85;;;;;;;13.88;100.00;100987.00;5031612;28;20052;-52
2022/10/04 08:43:55;;;;;;;0.10;0.00;;;;;;;13.96;100.00;100984.16;5037873;28;20044;-51
2022/10/04 08:46:39;;;;;;;1.30;0.25;;;;;;;13.98;100.00;100982.13;5041156;28;20590;-52
2022/10/04 08:49:07;;;;;;;6.15;1.13;;;;;;;14.06;100.00;100997.13;5033810;28;20072;-52
2022/10/04 08:51:54;;;;;;;0.00;0.00;;;;;;;14.14;100.00;100972.94;5042190;28;20037;-51
2022/10/04 08:54:28;;;;;;;1.45;0.10;;;;;;;14.27;100.00;100975.63;5037222;28;20117;-52
2022/10/04 08:57:16;;;;;;;0.77;0.20;;;;;;;14.42;100.00;100970.09;5039501;28;20076;-50
2022/10/04 09:00:04;;;;;;;0.00;0.00;;;;;;;14.47;100.00;100972.97;5042580;28;20044;-51
2022/10/04 09:02:55;;;;;;;0.00;0.00;;;;;;;14.50;100.00;100972.56;5040918;28;20037;-58
2022/10/04 09:05:41;;;;;;;1.20;0.45;;;;;;;14.55;100.00;100966.66;5045267;28;20548;-52
2022/10/04 09:08:31;;;;;;;0.10;0.08;;;;;;;14.56;100.00;100976.28;5040849;28;20393;-53
2022/10/04 09:11:10;;;;;;;0.90;0.00;;;;;;;14.53;100.00;100980.22;5043874;28;20052;-50
2022/10/04 09:13:39;;;;;;;0.00;0.00;;;;;;;14.55;100.00;100974.66;5036995;28;20076;-49
2022/10/04 09:16:04;;;;;;;0.45;0.00;;;;;;;14.55;100.00;100972.78;5039562;28;20025;-48
2022/10/04 09:18:50;;;;;;;0.05;0.00;;;;;;;14.63;100.00;100970.94;5039803;28;20082;-48
2022/10/04 09:21:38;;;;;;;1.55;0.00;;;;;;;14.76;100.00;100969.09;5032011;28;20044;-49
2022/10/04 09:24:35;;;;;;;0.00;0.00;;;;;;;14.90;100.00;100955.75;5027213;28;20029;-47
2022/10/04 09:27:50;;;;;;;0.00;0.00;;;;;;;14.99;100.00;100957.16;5025634;28;20083;-51
2022/10/04 09:30:32;;;;;;;0.88;0.00;;;;;;;15.00;100.00;100950.81;5021612;28;20052;-53
2022/10/04 09:33:09;;;;;;;2.10;0.00;;;;;;;15.08;100.00;100955.91;5043149;28;20385;-48
2022/10/04 09:36:12;;;;;;;1.08;0.20;;;;;;;15.08;100.00;100958.59;5035548;28;20064;-52
2022/10/04 09:38:55;;;;;;;1.65;0.00;;;;;;;15.12;100.00;100950.97;5041726;28;20047;-50
2022/10/04 09:42:06;;;;;;;1.02;0.00;;;;;;;15.22;100.00;100956.69;5039630;28;20029;-50
2022/10/04 09:44:47;;;;;;;0.15;0.00;;;;;;;15.17;100.00;100951.16;5011690;28;20376;-51
2022/10/04 09:47:25;;;;;;;0.25;0.00;;;;;;;15.15;100.00;100955.88;5044092;28;20255;-50
2022/10/04 09:50:16;;;;;;;2.70;0.20;;;;;;;15.24;100.00;100959.97;5049042;28;20029;-51
2022/10/04 09:52:47;;;;;;;1.88;0.00;;;;;;;15.29;100.00;100964.69;5039490;28;20026;-57
2022/10/04 09:55:23;;;;;;;0.80;0.40;;;;;;;15.29;100.00;100964.69;5038668;28;20204;-53
2022/10/04 09:58:08;;;;;;;0.00;0.00;;;;;;;15.25;100.00;100954.41;5048523;28;20020;-54
2022/10/04 10:00:49;;;;;;;0.00;0.00;;;;;;;15.24;100.00;100946.63;5033990;28;20034;-51
2022/10/04 10:03:37;;;;;;;0.20;0.00;;;;;;;15.39;100.00;100941.03;5046787;28;20032;-49
2022/10/04 10:06:29;;;;;;;0.20;0.15;;;;;;;15.55;100.00;100935.19;5039338;28;20051;-51
2022/10/04 10:09:20;;;;;;;1.45;0.05;;;;;;;15.66;100.00;100929.16;5030239;28;20425;-47
2022/10/04 10:14:55;;;;;;;0.00;0.00;;;;;;;15.57;100.00;100946.50;5037617;28;20390;-49
2022/10/04 10:17:42;;;;;;;0.52;0.00;;;;;;;15.64;100.00;100936.59;5049152;28;20033;-52
2022/10/04 10:20:26;;;;;;;0.88;0.32;;;;;;;15.65;100.00;100916.84;5041058;28;20041;-54
2022/10/04 10:22:57;;;;;;;0.10;0.00;;;;;;;15.74;100.00;100925.47;5042584;28;20116;-52
2022/10/04 10:25:51;;;;;;;0.10;0.00;;;;;;;15.82;100.00;100922.53;5039435;28;20052;-50
2022/10/04 10:28:50;;;;;;;0.17;0.00;;;;;;;16.03;100.00;100925.91;5037218;28;20025;-51
2022/10/04 10:31:43;;;;;;;0.65;0.30;;;;;;;16.01;100.00;100933.34;5040132;28;20038;-55
2022/10/04 10:34:17;;;;;;;0.20;0.15;;;;;;;16.04;100.00;100930.22;5044133;28;20037;-52
2022/10/04 10:36:48;;;;;;;1.52;0.20;;;;;;;16.03;100.00;100923.22;5040666;28;20404;-50
2022/10/04 10:39:47;;;;;;;3.05;0.10;;;;;;;16.08;100.00;100926.06;5043014;28;20499;-57
2022/10/04 10:42:47;;;;;;;0.00;0.00;;;;;;;16.08;100.00;100918.91;5044738;28;20367;-54
2022/10/04 10:45:35;;;;;;;0.52;0.00;;;;;;;16.10;100.00;100918.66;5042991;28;20040;-53
2022/10/04 10:48:29;;;;;;;0.05;0.00;;;;;;;16.17;100.00;100907.91;5038944;28;20509;-50
2022/10/04 10:51:19;;;;;;;1.42;0.10;;;;;;;16.14;100.00;100909.19;5048211;28;20655;-53
2022/10/04 10:54:29;;;;;;;0.10;0.10;;;;;;;16.17;100.00;100919.44;5038502;28;20496;-50
2022/10/04 10:57:03;;;;;;;1.20;0.00;;;;;;;16.21;100.00;100926.00;5035372;28;20044;-55
2022/10/04 10:59:58;;;;;;;1.65;0.00;;;;;;;16.18;100.00;100918.38;5038814;28;20429;-52
2022/10/04 11:02:46;;;;;;;0.00;0.00;;;;;;;16.10;100.00;100932.84;5039410;28;20021;-50
2022/10/04 11:05:30;;;;;;;1.10;0.00;;;;;;;16.17;100.00;100919.44;5030244;28;20382;-48
2022/10/04 11:08:28;;;;;;;0.90;0.00;;;;;;;16.20;100.00;100907.47;5034654;28;20033;-53
2022/10/04 11:11:12;;;;;;;0.40;0.00;;;;;;;16.17;100.00;100903.38;5040846;28;20044;-49
2022/10/04 11:14:33;;;;;;;1.85;0.00;;;;;;;16.16;100.00;100904.44;5036900;28;20032;-49
2022/10/04 11:17:38;;;;;;;0.05;0.00;;;;;;;16.18;100.00;100910.34;5014690;28;20069;-50
2022/10/04 11:20:42;;;;;;;0.63;0.00;;;;;;;16.11;100.00;100894.38;5000251;28;20698;-50
2022/10/04 11:23:47;;;;;;;0.15;0.00;;;;;;;15.99;100.00;100903.31;5043523;28;20052;-49
2022/10/04 11:26:48;;;;;;;0.20;0.00;;;;;;;16.07;100.00;100892.34;5042824;28;20037;-49
2022/10/04 11:29:19;;;;;;;2.05;0.10;;;;;;;16.34;100.00;100896.47;5036459;28;20037;-50
2022/10/04 11:32:06;;;;;;;;;;;;;;;16.73;100.00;100894.44;5044662;28;20033;-52
2022/10/04 11:34:46;;;;;;;0.35;0.10;;;;;;;16.99;100.00;100880.00;5041580;28;19931;-55
2022/10/04 11:37:52;;;;;;;2.33;0.10;;;;;;;17.22;100.00;100884.66;5045898;28;20151;-49
2022/10/04 11:40:52;;;;;;;0.00;0.00;;;;;;;17.20;100.00;100883.25;5033085;28;20279;-51
2022/10/04 11:43:45;;;;;;;2.08;0.00;;;;;;;17.11;100.00;100898.78;5039621;28;20035;-55
2022/10/04 11:46:34;;;;;;;0.47;0.00;;;;;;;16.95;100.00;100899.41;5033757;28;20029;-52
2022/10/04 11:49:02;;;;;;;1.60;0.00;;;;;;;16.92;100.00;100902.53;5043832;28;20116;-51
2022/10/04 11:52:05;;;;;;;0.90;0.10;;;;;;;16.85;100.00;100899.09;5045419;28;20521;-52
2022/10/04 11:54:52;;;;;;;2.47;0.00;;;;;;;16.66;100.00;100907.06;5035183;28;20029;-51
2022/10/04 11:57:36;;;;;;;0.30;0.00;;;;;;;16.41;100.00;100903.59;5033099;28;20037;-51
2022/10/04 12:00:15;;;;;;;1.60;0.00;;;;;;;16.31;100.00;100904.91;5034578;28;20029;-49
2022/10/04 12:02:59;;;;;;;0.30;0.10;;;;;;;16.29;100.00;100908.88;5033220;28;20044;-49
2022/10/04 12:05:57;;;;;;;1.00;0.00;;;;;;;16.36;100.00;100897.03;5032782;28;20079;-48
2022/10/04 12:08:55;;;;;;;0.10;0.10;;;;;;;16.40;100.00;100913.50;5032316;28;20080;-57
2022/10/04 12:15:02;;;;;;;1.45;0.08;;;;;;;16.31;100.00;100914.78;5032148;28;20052;-53
2022/10/04 12:18:06;;;;;;;1.85;0.00;;;;;;;16.48;100.00;100907.03;5030885;28;20610;-50
2022/10/04 12:20:52;;;;;;;0.00;0.00;;;;;;;16.61;100.00;100904.25;5042834;28;20033;-52
2022/10/04 12:23:42;;;;;;;0.28;0.00;;;;;;;16.49;100.00;100906.81;5028941;28;20035;-51
2022/10/04 12:26:32;;;;;;;0.80;0.00;;;;;;;16.33;100.00;100902.84;5035655;28;20041;-55
2022/10/04 12:29:35;;;;;;;0.65;0.08;;;;;;;16.19;100.00;100900.50;5032238;28;20033;-53
2022/10/04 12:32:15;;;;;;;0.85;0.00;;;;;;;16.17;100.00;100903.38;5034227;28;20086;-49